Time;durP1;ratioP1;P1;durP2;ratioP2;P2;SDS_P1;SDS_P2;PMS_P1;PMS_P2;Temp;Humidity;BMP_temperature;BMP_pressure;BME280_temperature;BME280_humidity;BME280_pressure;Samples;Min_cycle;Max_cycle;Signal;HPM_P1;HPM_P2
2021/07/31 00:01:55;;;;;;;12.10;9.63;;;;;;;22.33;74.25;97988.00;4980596;28;20109;-64
2021/07/31 00:04:20;;;;;;;12.02;9.52;;;;;;;22.37;73.83;97980.41;4977155;28;20037;-64
2021/07/31 00:06:46;;;;;;;14.13;9.65;;;;;;;22.15;74.21;97954.53;4982530;28;20374;-64
2021/07/31 00:09:11;;;;;;;13.35;10.45;;;;;;;22.31;74.38;97995.38;4980569;28;20045;-65
2021/07/31 00:11:36;;;;;;;11.98;9.93;;;;;;;21.91;74.08;97930.00;4978730;28;20560;-66
2021/07/31 00:14:02;;;;;;;12.90;9.95;;;;;;;22.43;73.79;98000.63;4972684;28;20034;-65
2021/07/31 00:16:27;;;;;;;14.98;10.10;;;;;;;22.39;73.97;98008.25;4995088;28;20025;-65
2021/07/31 00:18:53;;;;;;;15.30;9.88;;;;;;;22.41;74.04;98002.72;4976422;28;20030;-65
2021/07/31 00:21:19;;;;;;;14.02;10.25;;;;;;;22.32;73.98;98001.47;4975110;28;20125;-65
2021/07/31 00:23:44;;;;;;;13.90;9.88;;;;;;;22.38;73.83;98006.66;4981962;28;20168;-65
2021/07/31 00:26:09;;;;;;;13.32;9.75;;;;;;;22.37;74.63;98005.03;4977025;28;20027;-64
2021/07/31 00:28:35;;;;;;;15.15;9.32;;;;;;;22.52;73.64;98019.59;4978374;28;20030;-65
2021/07/31 00:31:00;;;;;;;12.68;9.30;;;;;;;22.59;74.38;98021.06;4964709;28;20045;-65
2021/07/31 00:33:26;;;;;;;12.75;9.55;;;;;;;22.44;74.53;97981.84;4975540;28;20050;-64
2021/07/31 00:35:51;;;;;;;14.30;10.25;;;;;;;22.63;74.34;98013.44;4980380;28;20022;-65
2021/07/31 00:38:17;;;;;;;11.57;9.55;;;;;;;22.31;75.22;97976.06;4975088;28;20776;-65
2021/07/31 00:40:42;;;;;;;13.05;9.45;;;;;;;22.57;74.55;97996.66;4984278;28;20106;-65
2021/07/31 00:43:08;;;;;;;12.13;9.93;;;;;;;22.29;74.49;97960.41;4988733;28;20031;-65
2021/07/31 00:45:34;;;;;;;15.00;10.35;;;;;;;22.46;75.07;98000.16;5011191;28;20026;-61
2021/07/31 00:48:00;;;;;;;13.52;9.88;;;;;;;22.24;76.16;97990.19;4980809;28;20033;-65
2021/07/31 00:50:27;;;;;;;11.65;10.10;;;;;;;22.22;76.19;97975.59;5004330;28;20228;-65
2021/07/31 00:52:53;;;;;;;15.40;11.43;;;;;;;22.21;76.56;97974.75;4977915;28;20031;-64
2021/07/31 00:55:19;;;;;;;13.10;9.30;;;;;;;21.92;77.30;97934.22;4977818;28;20088;-62
2021/07/31 00:57:47;;;;;;;12.07;10.35;;;;;;;22.22;77.50;97981.69;5010113;28;20038;-65
2021/07/31 01:00:13;;;;;;;12.90;10.57;;;;;;;21.98;77.88;97933.31;5006101;28;20461;-64
2021/07/31 01:02:38;;;;;;;12.95;10.23;;;;;;;22.12;78.29;97955.00;5012222;28;20054;-66
2021/07/31 01:05:05;;;;;;;15.18;10.55;;;;;;;21.76;79.17;97911.16;4979642;28;20050;-64
2021/07/31 01:07:30;;;;;;;12.57;9.90;;;;;;;21.91;79.24;97932.63;4982216;28;20034;-65
2021/07/31 01:09:56;;;;;;;13.15;10.07;;;;;;;21.96;78.05;97929.28;4966381;28;20030;-65
2021/07/31 01:12:22;;;;;;;15.52;10.05;;;;;;;21.87;77.42;97920.91;4979738;28;20033;-65
2021/07/31 01:14:48;;;;;;;13.23;9.68;;;;;;;21.91;77.16;97915.97;4982457;28;20026;-63
2021/07/31 01:17:13;;;;;;;15.48;9.30;;;;;;;21.64;77.09;97882.09;5008535;28;20026;-65
2021/07/31 01:19:39;;;;;;;13.05;9.93;;;;;;;21.78;77.42;97914.38;4991564;28;20379;-64
2021/07/31 01:22:04;;;;;;;13.35;9.50;;;;;;;21.68;77.54;97907.84;4991629;28;20041;-65
2021/07/31 01:24:30;;;;;;;11.90;9.10;;;;;;;21.68;77.60;97901.75;4974600;28;20030;-65
2021/07/31 01:26:55;;;;;;;12.57;9.68;;;;;;;21.39;77.76;97845.31;4982652;28;20041;-65
2021/07/31 01:29:20;;;;;;;11.77;9.25;;;;;;;21.65;76.88;97895.09;4974782;28;20113;-64
2021/07/31 01:31:46;;;;;;;10.57;8.43;;;;;;;21.53;77.82;97901.44;4980815;28;20405;-64
2021/07/31 01:34:12;;;;;;;12.20;9.88;;;;;;;21.26;77.86;97863.03;4960239;28;20043;-64
2021/07/31 01:36:37;;;;;;;12.48;9.70;;;;;;;21.32;78.77;97885.13;4974273;28;20038;-64
2021/07/31 01:39:03;;;;;;;17.77;9.68;;;;;;;21.38;78.42;97891.31;4973536;28;20031;-64
2021/07/31 01:41:29;;;;;;;12.85;10.38;;;;;;;21.44;79.09;97885.88;4979387;28;20026;-64
2021/07/31 01:43:54;;;;;;;12.93;10.02;;;;;;;21.37;79.80;97873.81;4961917;28;20037;-64
2021/07/31 01:46:21;;;;;;;15.30;10.52;;;;;;;21.33;80.74;97860.25;4979158;28;20039;-64
2021/07/31 01:48:46;;;;;;;12.85;11.00;;;;;;;21.07;80.77;97811.34;4974857;28;20034;-64
2021/07/31 01:51:12;;;;;;;14.80;10.88;;;;;;;21.34;81.25;97837.25;4976896;28;20417;-65
2021/07/31 01:53:37;;;;;;;16.23;11.77;;;;;;;21.31;81.14;97849.13;5010694;28;20030;-64
2021/07/31 01:56:03;;;;;;;13.95;11.80;;;;;;;21.33;81.01;97852.34;4964964;28;20426;-64
2021/07/31 01:58:28;;;;;;;13.85;11.50;;;;;;;21.33;80.73;97856.81;4977578;28;20026;-65
2021/07/31 02:00:55;;;;;;;18.27;11.60;;;;;;;21.35;80.25;97849.47;4978837;28;20619;-64
2021/07/31 02:03:20;;;;;;;13.50;12.00;;;;;;;21.39;79.85;97840.81;4976822;28;20043;-65
2021/07/31 02:05:45;;;;;;;17.25;11.93;;;;;;;21.34;80.43;97846.03;4981808;28;20169;-61
2021/07/31 02:08:11;;;;;;;14.55;12.18;;;;;;;21.40;79.77;97853.00;4974815;28;20573;-65
2021/07/31 02:10:36;;;;;;;13.45;11.25;;;;;;;21.31;78.32;97820.03;5011090;28;20350;-65
2021/07/31 02:13:02;;;;;;;15.27;11.25;;;;;;;21.19;78.01;97795.47;4965092;28;20034;-64
2021/07/31 02:15:27;;;;;;;14.68;11.73;;;;;;;21.49;78.48;97875.44;4975715;28;20030;-65
2021/07/31 02:17:53;;;;;;;13.05;11.18;;;;;;;21.51;78.91;97875.22;4978322;28;20019;-65
2021/07/31 02:20:18;;;;;;;13.27;11.05;;;;;;;21.48;79.06;97875.69;4976892;28;20048;-65
2021/07/31 02:22:44;;;;;;;13.57;10.82;;;;;;;21.48;78.36;97865.91;4978684;28;20129;-65
2021/07/31 02:25:09;;;;;;;14.63;11.30;;;;;;;21.46;78.52;97860.03;4970406;28;20035;-65
2021/07/31 02:27:35;;;;;;;14.43;11.35;;;;;;;21.56;77.99;97851.53;4992200;28;20137;-65
2021/07/31 02:30:00;;;;;;;14.02;10.98;;;;;;;21.52;77.33;97850.41;4977743;28;20151;-64
2021/07/31 02:32:25;;;;;;;12.63;11.23;;;;;;;21.36;77.25;97816.72;4979229;28;20384;-64
2021/07/31 02:34:51;;;;;;;13.82;10.85;;;;;;;21.71;77.07;97866.88;4980925;28;20142;-66
2021/07/31 02:37:16;;;;;;;12.68;11.15;;;;;;;21.60;77.70;97873.03;4980779;28;20022;-64
2021/07/31 02:39:41;;;;;;;14.70;10.98;;;;;;;21.69;76.88;97875.06;4975416;28;20030;-65
2021/07/31 02:42:07;;;;;;;14.32;10.57;;;;;;;21.63;76.90;97870.72;4970205;28;20030;-65
2021/07/31 02:44:34;;;;;;;12.40;10.25;;;;;;;21.65;76.74;97866.00;4978711;28;20045;-64
2021/07/31 02:46:59;;;;;;;12.88;10.15;;;;;;;21.61;76.92;97880.72;4976238;28;20815;-64
2021/07/31 02:49:25;;;;;;;13.35;10.50;;;;;;;21.54;77.27;97877.41;4980361;28;20026;-64
2021/07/31 02:51:52;;;;;;;11.98;9.93;;;;;;;21.61;77.05;97875.44;4982282;28;20385;-65
2021/07/31 02:54:17;;;;;;;15.13;10.27;;;;;;;21.37;77.13;97834.97;4978354;28;20033;-63
2021/07/31 02:56:42;;;;;;;13.52;10.27;;;;;;;21.38;77.09;97838.44;4977133;28;20034;-64
2021/07/31 02:59:08;;;;;;;12.90;10.30;;;;;;;21.63;76.58;97861.94;4982714;28;20030;-63
2021/07/31 03:01:34;;;;;;;13.48;10.85;;;;;;;21.72;76.79;97871.13;4997560;28;20053;-64
2021/07/31 03:03:59;;;;;;;13.27;10.13;;;;;;;21.68;76.93;97865.53;4977887;28;20104;-65
2021/07/31 03:06:25;;;;;;;12.98;10.68;;;;;;;21.63;76.92;97860.13;4978854;28;20077;-64
2021/07/31 03:08:51;;;;;;;14.60;10.10;;;;;;;21.47;77.34;97835.22;4979573;28;20061;-64
2021/07/31 03:11:16;;;;;;;12.88;10.48;;;;;;;21.75;78.10;97869.88;4975956;28;20033;-64
2021/07/31 03:13:41;;;;;;;13.43;10.27;;;;;;;21.83;78.00;97885.34;4960976;28;20026;-64
2021/07/31 03:16:07;;;;;;;15.27;10.43;;;;;;;21.90;78.21;97880.72;4976251;28;20026;-64
2021/07/31 03:18:32;;;;;;;12.63;10.40;;;;;;;21.88;78.03;97880.97;4980976;28;20492;-65
2021/07/31 03:20:58;;;;;;;14.70;10.35;;;;;;;21.85;77.65;97880.66;4977140;28;20481;-64
2021/07/31 03:23:24;;;;;;;13.32;10.35;;;;;;;21.84;77.78;97894.91;4991652;28;20034;-64
2021/07/31 03:25:56;;;;;;;16.75;10.10;;;;;;;21.88;77.62;97904.78;4969107;28;20477;-64
2021/07/31 03:28:21;;;;;;;15.25;10.75;;;;;;;21.66;77.80;97857.00;4979785;28;20026;-64
2021/07/31 03:30:46;;;;;;;13.02;10.40;;;;;;;21.62;77.58;97861.16;4980835;28;20544;-68
2021/07/31 03:33:12;;;;;;;13.75;10.57;;;;;;;21.85;77.87;97901.84;4983220;28;20126;-64
2021/07/31 03:35:40;;;;;;;12.60;10.20;;;;;;;21.87;77.35;97910.34;4964484;28;20023;-63
2021/07/31 03:38:06;;;;;;;12.48;10.20;;;;;;;21.74;78.10;97902.66;4973741;28;20494;-65
2021/07/31 03:40:32;;;;;;;15.55;11.57;;;;;;;21.67;78.65;97902.78;4968623;28;20053;-63
2021/07/31 03:42:57;;;;;;;12.13;9.95;;;;;;;21.44;78.80;97874.50;4973315;28;20774;-65
2021/07/31 03:45:23;;;;;;;13.05;10.55;;;;;;;21.57;80.01;97900.72;4986203;28;20080;-64
2021/07/31 03:47:48;;;;;;;12.35;10.93;;;;;;;21.54;80.10;97900.38;4978226;28;20041;-64
2021/07/31 03:50:14;;;;;;;17.17;10.57;;;;;;;21.33;79.47;97862.13;4971346;28;20030;-65
2021/07/31 03:52:39;;;;;;;14.68;10.95;;;;;;;21.66;78.98;97903.81;4982387;28;20038;-65
2021/07/31 03:55:06;;;;;;;13.20;10.85;;;;;;;21.77;78.29;97904.84;4970045;28;20366;-64
2021/07/31 03:57:31;;;;;;;13.30;10.25;;;;;;;21.69;78.41;97912.09;4967374;28;20023;-65
2021/07/31 03:59:57;;;;;;;13.50;10.68;;;;;;;21.47;79.13;97892.59;5005585;28;20806;-64
2021/07/31 04:02:22;;;;;;;14.45;10.45;;;;;;;21.53;79.59;97886.38;4986262;28;20122;-64
2021/07/31 04:04:48;;;;;;;14.23;10.68;;;;;;;21.53;79.88;97881.06;4972291;28;20035;-65
2021/07/31 04:07:13;;;;;;;14.23;10.60;;;;;;;21.36;80.22;97867.75;4971698;28;20023;-64
2021/07/31 04:09:38;;;;;;;15.35;9.93;;;;;;;21.30;79.95;97872.13;4991433;28;20038;-66
2021/07/31 04:12:04;;;;;;;12.55;10.23;;;;;;;21.43;80.34;97891.41;4989661;28;20033;-65
2021/07/31 04:14:30;;;;;;;11.70;10.18;;;;;;;21.53;79.82;97896.94;4975886;28;20030;-65
2021/07/31 04:16:55;;;;;;;12.70;10.32;;;;;;;21.34;79.75;97882.22;4964890;28;20567;-64
2021/07/31 04:19:21;;;;;;;12.32;10.15;;;;;;;21.33;80.11;97875.34;4971487;28;20030;-65
2021/07/31 04:21:46;;;;;;;14.57;9.32;;;;;;;21.32;80.37;97877.19;4975377;28;20018;-65
2021/07/31 04:24:12;;;;;;;15.23;9.93;;;;;;;21.07;81.00;97857.06;4969413;28;20413;-65
2021/07/31 04:26:37;;;;;;;14.05;10.07;;;;;;;21.20;80.31;97894.88;4985430;28;20599;-65
2021/07/31 04:29:02;;;;;;;15.65;10.35;;;;;;;20.93;80.91;97853.84;4957562;28;20046;-65
2021/07/31 04:31:28;;;;;;;12.25;10.15;;;;;;;21.03;80.83;97892.13;4969821;28;20042;-64
2021/07/31 04:33:56;;;;;;;11.80;10.15;;;;;;;21.13;79.85;97898.44;4969379;28;20480;-63
2021/07/31 04:36:21;;;;;;;12.57;10.23;;;;;;;20.95;79.34;97856.28;4970822;28;20026;-64
2021/07/31 04:38:47;;;;;;;13.32;10.23;;;;;;;20.98;79.33;97882.25;4971523;28;20372;-65
2021/07/31 04:41:12;;;;;;;13.85;9.80;;;;;;;20.99;79.07;97872.47;4969104;28;20042;-64
2021/07/31 04:43:38;;;;;;;12.68;9.48;;;;;;;21.02;80.04;97887.88;4975357;28;20050;-65
2021/07/31 04:46:03;;;;;;;12.82;9.48;;;;;;;20.90;79.81;97861.44;4975429;28;20031;-65
2021/07/31 04:48:29;;;;;;;14.45;9.93;;;;;;;20.86;80.09;97868.22;4968188;28;20059;-65
2021/07/31 04:51:02;;;;;;;11.95;10.05;;;;;;;21.09;79.89;97912.34;4975871;28;20030;-65
2021/07/31 04:53:28;;;;;;;13.55;10.43;;;;;;;20.80;80.42;97877.06;4975104;28;20027;-65
2021/07/31 04:55:54;;;;;;;12.30;9.80;;;;;;;20.78;80.70;97879.94;4975902;28;20033;-65
2021/07/31 04:58:21;;;;;;;13.18;10.00;;;;;;;21.10;80.33;97922.69;4969607;28;20037;-64
2021/07/31 05:00:47;;;;;;;13.07;9.52;;;;;;;21.01;80.79;97920.59;4988104;28;20022;-62
2021/07/31 05:03:13;;;;;;;13.15;10.10;;;;;;;20.90;81.08;97919.56;4967093;28;20423;-64
2021/07/31 05:05:39;;;;;;;11.77;9.40;;;;;;;20.95;80.46;97918.88;4998880;28;20022;-63
2021/07/31 05:08:04;;;;;;;13.25;9.52;;;;;;;20.83;80.24;97918.88;4969368;28;20073;-65
2021/07/31 05:10:30;;;;;;;13.80;9.65;;;;;;;20.87;80.52;97922.69;4971548;28;20424;-64
2021/07/31 05:12:55;;;;;;;14.43;9.80;;;;;;;20.85;80.16;97917.63;4971768;28;20026;-64
2021/07/31 05:15:21;;;;;;;12.95;9.25;;;;;;;20.86;79.09;97916.59;4968473;28;20372;-64
2021/07/31 05:17:46;;;;;;;13.25;9.18;;;;;;;20.91;79.17;97911.41;5002112;28;20018;-64
2021/07/31 05:20:12;;;;;;;11.45;8.77;;;;;;;20.78;78.85;97890.50;4961918;28;20026;-62
2021/07/31 05:22:37;;;;;;;13.93;8.85;;;;;;;21.00;78.80;97911.09;4969029;28;20035;-61
2021/07/31 05:25:03;;;;;;;10.68;8.77;;;;;;;21.07;79.10;97922.34;4979781;28;20516;-63
2021/07/31 05:27:29;;;;;;;13.40;10.38;;;;;;;21.13;78.84;97927.50;4969667;28;20081;-63
2021/07/31 05:29:54;;;;;;;13.05;9.27;;;;;;;21.08;78.81;97919.50;4978908;28;20036;-64
2021/07/31 05:32:19;;;;;;;14.48;9.50;;;;;;;20.91;78.34;97895.56;5001255;28;20082;-64
2021/07/31 05:34:45;;;;;;;11.48;8.98;;;;;;;21.17;78.18;97935.00;4967149;28;20022;-63
2021/07/31 05:37:10;;;;;;;15.70;9.60;;;;;;;21.12;77.95;97928.56;4974245;28;20046;-64
2021/07/31 05:39:35;;;;;;;13.60;9.15;;;;;;;21.18;77.46;97928.69;4972167;28;20118;-65
2021/07/31 05:42:02;;;;;;;10.98;8.50;;;;;;;21.20;77.96;97924.75;4978153;28;20041;-65
2021/07/31 05:44:28;;;;;;;11.32;8.43;;;;;;;21.23;77.76;97932.25;4974080;28;20019;-64
2021/07/31 05:46:54;;;;;;;13.32;9.18;;;;;;;21.19;77.95;97935.56;4975519;28;20029;-64
2021/07/31 05:49:20;;;;;;;12.90;9.00;;;;;;;21.15;78.09;97937.84;4987887;28;20472;-64
2021/07/31 05:51:45;;;;;;;11.48;8.80;;;;;;;20.93;77.79;97884.75;4989411;28;20039;-64
2021/07/31 05:54:11;;;;;;;13.50;9.07;;;;;;;21.30;77.51;97937.41;4974085;28;20030;-64
2021/07/31 05:56:37;;;;;;;10.95;8.63;;;;;;;21.31;77.69;97946.94;4975505;28;20037;-64
2021/07/31 05:59:02;;;;;;;11.38;8.82;;;;;;;21.36;78.06;97936.50;5014038;28;20513;-64
2021/07/31 06:01:27;;;;;;;10.85;9.15;;;;;;;21.31;78.23;97944.31;4973513;28;20498;-63
2021/07/31 06:03:53;;;;;;;14.43;8.98;;;;;;;21.34;77.67;97929.81;4975707;28;20033;-65
2021/07/31 06:06:18;;;;;;;12.13;9.18;;;;;;;21.34;77.60;97932.44;4980714;28;21511;-64
2021/07/31 06:08:44;;;;;;;14.27;9.32;;;;;;;21.50;77.06;97931.78;4975090;28;20038;-64
2021/07/31 06:11:09;;;;;;;12.10;8.95;;;;;;;21.47;77.38;97932.25;4978487;28;20031;-65
2021/07/31 06:13:34;;;;;;;12.60;9.73;;;;;;;21.35;77.44;97931.44;4972748;28;20688;-65
2021/07/31 06:16:00;;;;;;;13.60;9.25;;;;;;;21.33;76.99;97912.34;4993628;28;20501;-64
2021/07/31 06:18:25;;;;;;;11.88;9.55;;;;;;;21.39;78.12;97935.22;4971412;28;20071;-65
2021/07/31 06:20:51;;;;;;;11.35;9.07;;;;;;;21.43;77.85;97939.00;4981447;28;20031;-65
2021/07/31 06:23:17;;;;;;;11.80;9.27;;;;;;;21.36;78.21;97940.97;4979140;28;20571;-65
2021/07/31 06:25:43;;;;;;;13.07;9.55;;;;;;;21.44;77.68;97946.69;4979664;28;20034;-65
2021/07/31 06:28:09;;;;;;;14.70;8.93;;;;;;;21.13;77.74;97897.63;4992979;28;20022;-64
2021/07/31 06:30:34;;;;;;;13.13;9.57;;;;;;;21.38;77.67;97939.72;4976969;28;20034;-64
2021/07/31 06:33:00;;;;;;;11.70;9.00;;;;;;;21.27;77.23;97919.38;4974852;28;20093;-64
2021/07/31 06:35:25;;;;;;;15.02;9.80;;;;;;;21.46;77.49;97952.59;4976658;28;20121;-65
2021/07/31 06:37:51;;;;;;;14.35;9.55;;;;;;;21.46;77.46;97955.25;4979433;28;20053;-65
2021/07/31 06:40:17;;;;;;;11.00;8.70;;;;;;;21.48;77.45;97947.91;4971459;28;20429;-64
2021/07/31 06:42:42;;;;;;;16.20;9.75;;;;;;;21.44;77.21;97953.84;4978118;28;20033;-64
2021/07/31 06:45:08;;;;;;;14.05;8.98;;;;;;;21.53;77.45;97952.47;5000726;28;20034;-64
2021/07/31 06:47:33;;;;;;;13.52;9.38;;;;;;;21.50;77.51;97964.34;4974443;28;20038;-64
2021/07/31 06:49:58;;;;;;;13.55;9.68;;;;;;;21.22;77.47;97913.97;4974938;28;20060;-66
2021/07/31 06:52:24;;;;;;;13.00;9.75;;;;;;;21.50;77.15;97969.63;5000246;28;20117;-64
2021/07/31 06:54:49;;;;;;;11.73;9.10;;;;;;;21.64;76.58;97964.88;4973301;28;20046;-64
2021/07/31 06:57:15;;;;;;;13.57;9.50;;;;;;;21.68;76.31;97968.69;4971770;28;20073;-65
2021/07/31 06:59:40;;;;;;;12.02;9.20;;;;;;;21.67;75.65;97959.13;4985886;28;20113;-61
2021/07/31 07:02:06;;;;;;;11.57;8.95;;;;;;;21.40;75.81;97924.41;4974562;28;20094;-64
2021/07/31 07:04:31;;;;;;;10.95;9.30;;;;;;;21.67;76.26;97948.56;4987999;28;20493;-65
2021/07/31 07:06:59;;;;;;;15.30;9.50;;;;;;;21.56;75.97;97920.28;4980560;28;20085;-64
2021/07/31 07:09:24;;;;;;;12.52;9.10;;;;;;;21.62;75.47;97913.25;4975177;28;20027;-65
2021/07/31 07:11:49;;;;;;;10.88;8.75;;;;;;;21.98;74.58;97962.44;4978404;28;20022;-65
2021/07/31 07:14:15;;;;;;;12.30;8.65;;;;;;;22.04;74.26;97958.81;4962877;28;20058;-64
2021/07/31 07:16:40;;;;;;;12.38;8.55;;;;;;;22.13;74.59;97953.19;4974431;28;20068;-64
2021/07/31 07:19:06;;;;;;;10.73;8.13;;;;;;;22.02;74.01;97915.91;4974339;28;20110;-64
2021/07/31 07:21:31;;;;;;;11.55;8.77;;;;;;;22.41;72.61;97953.19;4968613;28;20518;-64
2021/07/31 07:23:56;;;;;;;12.07;8.80;;;;;;;22.11;73.12;97916.34;5005405;28;20022;-65
2021/07/31 07:26:22;;;;;;;12.93;8.63;;;;;;;22.33;73.23;97950.94;4980413;28;20030;-64
2021/07/31 07:28:47;;;;;;;11.40;8.77;;;;;;;22.32;73.02;97943.22;4975906;28;20105;-65
2021/07/31 07:31:14;;;;;;;11.60;9.00;;;;;;;22.22;72.63;97955.22;4977223;28;20030;-64
2021/07/31 07:33:40;;;;;;;12.32;9.23;;;;;;;22.26;72.93;97944.97;5007571;28;20460;-64
2021/07/31 07:36:16;;;;;;;10.88;8.80;;;;;;;22.30;72.88;97953.25;4990166;28;20113;-65
2021/07/31 07:38:42;;;;;;;12.00;9.30;;;;;;;22.27;72.68;97952.69;5001021;28;20031;-65
2021/07/31 07:41:09;;;;;;;9.93;8.30;;;;;;;22.26;73.27;97947.63;4974863;28;20093;-64
2021/07/31 07:43:35;;;;;;;11.07;9.10;;;;;;;21.94;73.00;97905.72;4974753;28;20065;-64
2021/07/31 07:46:01;;;;;;;10.85;8.23;;;;;;;22.24;72.92;97947.81;4974657;28;20422;-65
2021/07/31 07:48:26;;;;;;;10.75;8.45;;;;;;;22.28;72.98;97948.19;5002442;28;20110;-65
2021/07/31 07:50:51;;;;;;;11.98;8.38;;;;;;;22.37;72.64;97943.31;4977197;28;20105;-64
2021/07/31 07:53:17;;;;;;;13.15;8.63;;;;;;;22.42;72.79;97946.06;4980102;28;20065;-65
2021/07/31 07:55:42;;;;;;;12.93;8.75;;;;;;;22.26;73.62;97942.34;4990016;28;20125;-65
2021/07/31 07:58:08;;;;;;;12.60;9.27;;;;;;;21.95;73.99;97902.00;4976924;28;20058;-65
2021/07/31 08:00:34;;;;;;;13.07;8.93;;;;;;;22.29;73.89;97939.22;4978553;28;20114;-65
2021/07/31 08:03:00;;;;;;;11.40;8.73;;;;;;;22.13;73.43;97908.19;4978096;28;20035;-64
2021/07/31 08:05:25;;;;;;;13.52;8.85;;;;;;;22.82;72.70;97948.63;4963540;28;20405;-65
2021/07/31 08:07:51;;;;;;;12.52;8.73;;;;;;;22.52;73.09;97940.13;4980141;28;20715;-65
2021/07/31 08:10:16;;;;;;;12.00;9.23;;;;;;;22.86;71.64;97909.19;4963408;28;20041;-65
2021/07/31 08:12:42;;;;;;;10.15;8.20;;;;;;;23.03;70.71;97917.13;4976628;28;20038;-64
2021/07/31 08:15:08;;;;;;;12.15;8.43;;;;;;;23.42;70.73;97949.03;4980462;28;20030;-65
2021/07/31 08:17:33;;;;;;;13.30;9.10;;;;;;;23.21;70.86;97943.41;4979421;28;20058;-64
2021/07/31 08:20:00;;;;;;;11.98;9.20;;;;;;;23.09;71.40;97950.66;4958182;28;20887;-66
2021/07/31 08:22:25;;;;;;;12.88;8.65;;;;;;;23.17;71.67;97944.94;4976595;28;20560;-65
2021/07/31 08:24:50;;;;;;;13.23;9.32;;;;;;;23.71;69.20;97949.69;4980230;28;20023;-65
2021/07/31 08:27:16;;;;;;;13.30;8.82;;;;;;;23.90;68.32;97950.19;4974760;28;20113;-65
2021/07/31 08:29:41;;;;;;;13.10;8.52;;;;;;;24.25;67.82;97940.22;4960706;28;20097;-65
2021/07/31 08:32:07;;;;;;;11.75;8.43;;;;;;;24.66;66.20;97937.97;4980157;28;20510;-67
2021/07/31 08:34:32;;;;;;;11.50;8.88;;;;;;;24.86;65.43;97926.72;4992314;28;20022;-64
2021/07/31 08:37:02;;;;;;;12.68;8.45;;;;;;;25.02;65.24;97925.78;4977736;28;20047;-65
2021/07/31 08:39:27;;;;;;;13.50;7.95;;;;;;;25.32;63.81;97911.91;4999728;28;20090;-65
2021/07/31 08:41:54;;;;;;;11.85;7.55;;;;;;;25.82;62.86;97920.38;4979976;28;20026;-62
2021/07/31 08:44:19;;;;;;;11.95;8.15;;;;;;;25.93;61.27;97920.47;4971500;28;20026;-64
2021/07/31 08:46:46;;;;;;;14.80;8.07;;;;;;;26.12;61.94;97920.78;4992494;28;20038;-65
2021/07/31 08:49:13;;;;;;;12.38;8.27;;;;;;;26.50;61.24;97916.06;4965991;28;20041;-65
2021/07/31 08:51:39;;;;;;;13.30;8.02;;;;;;;26.30;59.76;97908.84;4968937;28;20409;-62
2021/07/31 08:54:04;;;;;;;13.13;8.07;;;;;;;26.49;58.97;97912.59;4996983;28;20030;-61
2021/07/31 08:56:30;;;;;;;22.35;8.68;;;;;;;26.53;59.02;97907.53;4984697;28;20137;-66
2021/07/31 08:58:59;;;;;;;15.80;8.40;;;;;;;26.43;59.83;97881.66;4982890;28;20026;-65
2021/07/31 09:01:24;;;;;;;12.80;7.65;;;;;;;26.88;57.22;97912.09;4973021;28;20031;-64
2021/07/31 09:03:51;;;;;;;9.85;7.70;;;;;;;26.83;58.28;97880.09;4979934;28;20069;-64
2021/07/31 09:06:30;;;;;;;9.18;7.40;;;;;;;26.93;57.06;97905.97;4962213;28;20061;-65
2021/07/31 09:08:57;;;;;;;10.35;8.02;;;;;;;27.17;57.56;97880.31;5006534;28;20129;-65
2021/07/31 09:11:23;;;;;;;9.68;6.90;;;;;;;26.94;56.74;97879.03;4980071;28;20045;-63
2021/07/31 09:13:48;;;;;;;10.73;7.78;;;;;;;27.13;56.38;97910.47;5004961;28;20034;-65
2021/07/31 09:16:14;;;;;;;14.95;7.93;;;;;;;26.95;57.40;97906.50;4983546;28;20545;-65
2021/07/31 09:18:45;;;;;;;11.93;8.15;;;;;;;26.85;57.99;97901.94;4979016;28;20036;-64
2021/07/31 09:21:16;;;;;;;12.88;8.60;;;;;;;26.94;58.47;97902.22;4981452;28;20432;-62
2021/07/31 09:23:50;;;;;;;12.52;8.02;;;;;;;26.77;58.39;97905.97;4964213;28;20050;-64
2021/07/31 09:26:15;;;;;;;14.50;8.13;;;;;;;26.91;59.75;97900.91;5009948;28;20045;-65
2021/07/31 09:28:41;;;;;;;13.00;8.10;;;;;;;26.44;59.35;97857.41;4979747;28;20381;-63
2021/07/31 09:31:15;;;;;;;11.80;7.57;;;;;;;26.85;59.98;97888.63;4980633;28;20112;-65
2021/07/31 09:33:42;;;;;;;11.02;8.10;;;;;;;26.79;60.81;97895.03;4984032;28;20035;-65
2021/07/31 09:36:08;;;;;;;11.57;8.00;;;;;;;26.26;62.46;97885.38;4979138;28;20035;-65
2021/07/31 09:38:37;;;;;;;12.27;8.00;;;;;;;26.46;62.55;97889.91;4977351;28;20081;-66
2021/07/31 09:41:24;;;;;;;10.88;8.05;;;;;;;25.95;62.09;97878.41;4978210;28;20018;-67
2021/07/31 09:44:01;;;;;;;9.90;7.53;;;;;;;25.85;62.35;97879.16;4982391;28;21366;-65
2021/07/31 09:46:39;;;;;;;12.50;7.90;;;;;;;25.58;63.67;97855.34;4977795;28;20089;-65
2021/07/31 09:49:07;;;;;;;9.53;8.40;;;;;;;25.39;64.74;97876.28;4980857;28;20117;-64
2021/07/31 09:51:47;;;;;;;11.30;8.13;;;;;;;25.22;66.19;97871.91;5002874;28;20526;-64
2021/07/31 09:54:14;;;;;;;10.80;8.80;;;;;;;24.66;66.43;97835.16;4976140;28;20061;-63
2021/07/31 09:56:43;;;;;;;11.60;8.60;;;;;;;24.98;66.80;97868.06;4993600;28;20113;-64
2021/07/31 09:59:09;;;;;;;10.85;8.43;;;;;;;24.90;65.26;97861.38;4978182;28;20041;-64
2021/07/31 10:01:36;;;;;;;10.85;8.40;;;;;;;25.22;65.03;97869.25;4976957;28;20034;-64
2021/07/31 10:04:03;;;;;;;10.27;8.73;;;;;;;24.94;64.04;97867.75;4977606;28;20025;-62
2021/07/31 10:06:30;;;;;;;13.23;9.20;;;;;;;25.05;64.69;97868.63;5009543;28;20481;-63
2021/07/31 10:08:55;;;;;;;10.57;8.68;;;;;;;25.10;65.60;97863.34;4961161;28;20517;-63
2021/07/31 10:11:21;;;;;;;10.63;8.93;;;;;;;25.26;64.51;97861.59;4976891;28;20042;-63
2021/07/31 10:13:47;;;;;;;10.43;8.55;;;;;;;25.41;63.96;97856.34;4984040;28;20117;-63
2021/07/31 10:16:13;;;;;;;11.07;8.77;;;;;;;25.43;65.62;97859.56;4982187;28;20822;-60
2021/07/31 10:18:38;;;;;;;12.43;8.80;;;;;;;25.47;63.78;97851.84;4993724;28;20035;-59
2021/07/31 10:21:09;;;;;;;11.88;8.98;;;;;;;25.54;63.81;97855.06;4975358;28;20022;-60
2021/07/31 10:23:55;;;;;;;11.80;9.25;;;;;;;25.80;64.12;97845.31;4970351;28;20031;-57
2021/07/31 10:26:20;;;;;;;12.77;9.40;;;;;;;25.85;62.52;97841.88;4975501;28;20858;-61
2021/07/31 10:28:45;;;;;;;11.65;8.85;;;;;;;25.86;60.50;97808.84;4973048;28;20034;-60
2021/07/31 10:31:32;;;;;;;13.35;9.00;;;;;;;26.30;61.45;97836.88;4978790;28;20027;-61
2021/07/31 10:33:57;;;;;;;9.90;8.88;;;;;;;26.10;61.00;97793.19;4981560;28;20027;-59
2021/07/31 10:36:32;;;;;;;11.48;9.38;;;;;;;26.42;61.90;97829.44;5007856;28;20033;-60
2021/07/31 10:38:58;;;;;;;11.75;9.10;;;;;;;26.02;61.61;97789.19;4971660;28;20027;-62
2021/07/31 10:41:58;;;;;;;11.93;8.55;;;;;;;26.22;59.98;97827.56;4968952;28;20372;-62
2021/07/31 10:44:25;;;;;;;13.80;9.25;;;;;;;26.25;61.36;97833.16;5004617;28;20042;-61
2021/07/31 10:47:19;;;;;;;11.73;9.70;;;;;;;26.29;60.85;97828.09;4972772;28;20027;-61
2021/07/31 10:49:45;;;;;;;12.23;8.38;;;;;;;26.38;59.26;97817.72;4971696;28;20145;-60
2021/07/31 10:52:10;;;;;;;12.40;9.07;;;;;;;26.53;59.18;97831.03;4987263;28;20037;-60
2021/07/31 10:54:59;;;;;;;10.27;8.50;;;;;;;26.61;58.58;97816.38;4985159;28;20036;-61
2021/07/31 10:57:52;;;;;;;13.05;8.95;;;;;;;26.73;58.18;97813.47;4982261;28;20030;-60
2021/07/31 11:00:28;;;;;;;12.70;9.00;;;;;;;26.73;58.65;97813.47;4970966;28;20043;-59
2021/07/31 11:02:54;;;;;;;11.43;8.43;;;;;;;26.68;56.14;97797.47;5002058;28;20038;-61
2021/07/31 11:05:20;;;;;;;10.57;8.55;;;;;;;26.63;56.66;97811.59;4972142;28;20030;-60
2021/07/31 11:08:06;;;;;;;10.38;8.02;;;;;;;26.61;56.44;97803.88;4968395;28;20518;-60
2021/07/31 11:10:35;;;;;;;10.80;7.97;;;;;;;26.56;56.27;97787.84;4972110;28;20062;-61
2021/07/31 11:13:00;;;;;;;11.52;8.43;;;;;;;26.30;57.56;97743.63;4972090;28;20073;-61
2021/07/31 11:15:26;;;;;;;11.32;8.88;;;;;;;26.37;58.94;97790.25;4976787;28;20109;-62
2021/07/31 11:17:57;;;;;;;13.68;9.15;;;;;;;26.36;61.25;97802.00;4955451;28;20027;-61
2021/07/31 11:20:24;;;;;;;12.00;9.57;;;;;;;26.19;63.44;97788.13;5010064;28;20018;-61